Time;durP1;ratioP1;P1;durP2;ratioP2;P2;SDS_P1;SDS_P2;PMS_P1;PMS_P2;Temp;Humidity;BMP_temperature;BMP_pressure;BME280_temperature;BME280_humidity;BME280_pressure;Samples;Min_cycle;Max_cycle;Signal;HPM_P1;HPM_P2
2021/08/10 00:00:19;;;;;;;12.13;3.02;;;;;;;15.74;70.03;99329.17;2203208;80;21032;-66
2021/08/10 00:03:22;;;;;;;10.45;2.77;;;;;;;15.75;70.44;99333.02;2170449;79;21064;-65
2021/08/10 00:06:23;;;;;;;11.28;2.95;;;;;;;15.78;70.48;99324.03;2203311;80;21031;-65
2021/08/10 00:09:25;;;;;;;19.43;3.70;;;;;;;15.82;70.80;99318.91;2199535;81;21013;-65
2021/08/10 00:12:26;;;;;;;12.30;3.43;;;;;;;15.82;70.80;99318.91;2238117;79;21947;-65
2021/08/10 00:15:28;;;;;;;9.37;2.83;;;;;;;15.84;70.81;99314.83;2195868;80;20984;-64
2021/08/10 00:18:29;;;;;;;27.40;8.07;;;;;;;15.86;70.79;99312.44;2192748;80;21325;-65
2021/08/10 00:21:31;;;;;;;34.25;10.85;;;;;;;15.83;70.75;99316.63;2212425;80;21096;-65
2021/08/10 00:24:32;;;;;;;22.37;6.20;;;;;;;15.88;70.93;99321.08;2210749;80;21043;-65
2021/08/10 00:27:33;;;;;;;31.97;9.13;;;;;;;15.93;70.96;99316.30;2208853;80;21587;-64
2021/08/10 00:30:35;;;;;;;30.37;8.87;;;;;;;15.93;70.96;99316.30;2189579;80;21484;-65
2021/08/10 00:33:36;;;;;;;31.00;9.47;;;;;;;15.82;71.31;99312.30;2192402;80;21023;-65
2021/08/10 00:36:38;;;;;;;28.97;9.30;;;;;;;15.82;71.31;99312.30;2206331;80;22108;-64
2021/08/10 00:39:39;;;;;;;16.80;4.00;;;;;;;15.89;71.40;99318.81;2207775;80;21044;-64
2021/08/10 00:42:41;;;;;;;12.27;3.40;;;;;;;16.00;71.57;99319.80;2198250;80;21553;-64
2021/08/10 00:45:42;;;;;;;12.43;3.47;;;;;;;16.10;71.56;99312.38;2196216;80;21028;-65
2021/08/10 00:48:43;;;;;;;14.63;3.60;;;;;;;16.20;71.29;99315.14;2241523;79;21242;-65
2021/08/10 00:51:45;;;;;;;18.45;4.28;;;;;;;16.15;71.22;99311.16;2240112;79;20985;-65
2021/08/10 00:54:46;;;;;;;25.53;7.87;;;;;;;16.16;71.26;99313.72;2211557;80;21075;-65
2021/08/10 00:57:48;;;;;;;23.30;5.60;;;;;;;16.20;71.39;99308.52;2196981;80;20984;-65
2021/08/10 01:00:49;;;;;;;11.73;3.30;;;;;;;16.23;71.48;99312.28;2205633;80;21271;-65
2021/08/10 01:03:51;;;;;;;14.87;3.20;;;;;;;16.20;71.40;99304.55;2199339;80;21047;-65
2021/08/10 01:06:52;;;;;;;15.37;3.77;;;;;;;16.15;71.65;99303.22;2195624;80;21606;-65
2021/08/10 01:09:55;;;;;;;11.17;3.40;;;;;;;16.07;71.59;99300.68;2243294;79;21233;-64
2021/08/10 01:12:56;;;;;;;14.68;3.62;;;;;;;16.10;72.10;99308.88;2200142;80;21025;-65
2021/08/10 01:15:58;;;;;;;17.57;3.72;;;;;;;16.10;72.10;99308.88;2201145;80;21129;-64
2021/08/10 01:18:59;;;;;;;16.67;3.60;;;;;;;15.95;72.25;99312.22;2196261;80;21566;-65
2021/08/10 01:22:01;;;;;;;11.80;3.30;;;;;;;15.95;72.25;99312.22;2238998;79;21586;-63
2021/08/10 01:25:02;;;;;;;11.37;2.90;;;;;;;16.00;72.65;99306.56;2209341;80;21075;-64
2021/08/10 01:28:04;;;;;;;12.40;3.37;;;;;;;16.17;72.04;99301.31;2208216;80;21730;-64
2021/08/10 01:31:05;;;;;;;17.80;3.67;;;;;;;16.07;71.96;99301.17;2192858;80;21029;-64
2021/08/10 01:34:07;;;;;;;10.38;3.20;;;;;;;16.05;71.96;99296.49;2196682;80;21463;-64
2021/08/10 01:37:08;;;;;;;28.20;8.00;;;;;;;16.05;71.98;99301.30;2196211;81;21023;-63
2021/08/10 01:40:10;;;;;;;46.63;14.80;;;;;;;16.02;71.93;99290.95;2241047;79;21538;-64
2021/08/10 01:43:11;;;;;;;22.77;5.10;;;;;;;16.00;72.35;99274.33;2211579;80;21123;-65
2021/08/10 01:46:12;;;;;;;19.83;4.23;;;;;;;16.04;72.24;99284.22;2191609;80;21231;-63
2021/08/10 01:49:14;;;;;;;15.53;4.00;;;;;;;16.05;72.47;99281.45;2195864;81;21033;-63
2021/08/10 01:52:15;;;;;;;18.70;5.20;;;;;;;16.04;72.30;99280.24;2242832;79;21308;-64
2021/08/10 01:55:17;;;;;;;19.73;3.90;;;;;;;16.02;72.40;99275.53;2242308;79;21551;-63
2021/08/10 01:58:19;;;;;;;15.20;4.30;;;;;;;15.94;72.31;99280.93;2211631;80;20984;-64
2021/08/10 02:01:21;;;;;;;17.40;3.90;;;;;;;15.94;72.54;99274.80;2204185;80;21120;-64
2021/08/10 02:04:23;;;;;;;20.10;4.47;;;;;;;15.92;72.87;99274.09;2184238;80;21057;-64
2021/08/10 02:07:24;;;;;;;31.48;7.70;;;;;;;15.94;72.65;99282.25;2203421;80;21546;-64
2021/08/10 02:10:25;;;;;;;17.48;3.98;;;;;;;15.94;72.60;99283.58;2211574;80;21000;-65
2021/08/10 02:13:27;;;;;;;14.93;4.03;;;;;;;15.92;72.82;99291.29;2203840;80;21007;-64
2021/08/10 02:16:28;;;;;;;13.63;3.77;;;;;;;15.93;72.83;99287.66;2197557;80;21106;-64
2021/08/10 02:19:30;;;;;;;14.83;3.47;;;;;;;15.99;72.85;99296.48;2195902;80;21346;-64
2021/08/10 02:22:32;;;;;;;15.23;3.60;;;;;;;16.05;73.10;99287.23;2206864;80;21511;-64
2021/08/10 02:25:33;;;;;;;16.23;3.83;;;;;;;16.08;72.83;99281.20;2201031;80;21064;-64
2021/08/10 02:28:35;;;;;;;14.75;4.17;;;;;;;16.08;72.81;99273.77;2192356;80;21015;-64
2021/08/10 02:31:36;;;;;;;17.03;4.70;;;;;;;16.07;73.13;99276.03;2239710;79;21149;-64
2021/08/10 02:34:37;;;;;;;13.93;3.67;;;;;;;16.14;73.08;99283.86;2210919;80;21082;-64
2021/08/10 02:37:39;;;;;;;17.63;4.07;;;;;;;16.16;73.03;99281.96;2208046;80;21635;-64
2021/08/10 02:40:40;;;;;;;15.83;3.80;;;;;;;16.32;73.20;99275.00;2196602;80;21009;-65
2021/08/10 02:43:42;;;;;;;13.95;3.60;;;;;;;16.23;72.45;99271.73;2241162;79;20960;-64
2021/08/10 02:46:43;;;;;;;15.07;4.03;;;;;;;16.24;72.55;99273.42;2233147;79;20989;-64
2021/08/10 02:49:45;;;;;;;17.27;4.27;;;;;;;16.15;72.73;99269.68;2200365;80;20999;-65
2021/08/10 02:52:46;;;;;;;17.30;4.00;;;;;;;16.03;72.92;99272.80;2199975;80;21059;-65
2021/08/10 02:55:47;;;;;;;17.90;4.63;;;;;;;16.02;73.05;99269.78;2198454;80;21043;-64
2021/08/10 02:58:49;;;;;;;21.87;5.00;;;;;;;16.12;73.20;99277.86;2200944;80;21554;-64
2021/08/10 03:01:50;;;;;;;23.57;6.70;;;;;;;16.10;72.81;99273.15;2210124;80;21212;-64
2021/08/10 03:04:52;;;;;;;21.25;5.53;;;;;;;16.01;72.83;99274.70;2208648;80;21015;-65
2021/08/10 03:07:53;;;;;;;21.17;6.25;;;;;;;16.00;73.25;99283.59;2242600;78;21039;-64
2021/08/10 03:10:55;;;;;;;21.57;5.70;;;;;;;16.03;73.15;99274.12;2241729;78;21019;-64
2021/08/10 03:13:57;;;;;;;18.80;4.55;;;;;;;16.05;72.92;99276.16;2238729;78;21004;-64
2021/08/10 03:16:58;;;;;;;19.63;5.10;;;;;;;16.06;73.56;99273.02;2241712;79;21015;-64
2021/08/10 03:20:00;;;;;;;22.40;6.10;;;;;;;16.20;73.40;99270.64;2243690;77;21016;-64
2021/08/10 03:23:01;;;;;;;17.52;4.87;;;;;;;16.22;72.84;99274.86;2244800;78;21027;-64
2021/08/10 03:26:03;;;;;;;23.10;5.45;;;;;;;16.10;72.99;99285.06;2244866;78;20999;-64
2021/08/10 03:29:04;;;;;;;15.13;4.37;;;;;;;16.07;73.19;99278.69;2242731;78;21047;-64
2021/08/10 03:32:06;;;;;;;16.12;3.83;;;;;;;15.88;73.17;99286.70;2242266;77;21055;-65
2021/08/10 03:35:07;;;;;;;16.48;3.80;;;;;;;15.77;73.28;99295.88;2242800;78;20999;-64
2021/08/10 03:38:09;;;;;;;16.33;3.93;;;;;;;15.73;73.22;99296.61;2245715;78;21017;-64
2021/08/10 03:41:10;;;;;;;17.92;3.87;;;;;;;15.69;73.34;99291.67;2244552;78;21000;-65
2021/08/10 03:44:11;;;;;;;13.07;3.73;;;;;;;15.51;73.51;99293.88;2245250;78;20988;-65
2021/08/10 03:47:13;;;;;;;14.30;3.80;;;;;;;15.44;73.66;99278.09;2244073;78;21164;-64
2021/08/10 03:50:14;;;;;;;15.80;3.98;;;;;;;15.44;73.80;99276.78;2235426;78;21511;-64
2021/08/10 03:53:17;;;;;;;18.37;4.63;;;;;;;15.47;73.73;99280.02;2243900;78;20992;-64
2021/08/10 03:56:18;;;;;;;18.30;5.17;;;;;;;15.46;73.73;99267.78;2242343;78;21561;-65
2021/08/10 03:59:20;;;;;;;33.57;11.77;;;;;;;15.62;74.12;99271.45;2242303;78;21008;-64
2021/08/10 04:02:21;;;;;;;28.83;9.05;;;;;;;15.70;73.86;99270.86;2192440;81;21091;-63
2021/08/10 04:05:23;;;;;;;26.75;6.22;;;;;;;15.72;73.90;99270.28;2194130;80;21017;-64
2021/08/10 04:08:24;;;;;;;19.40;5.27;;;;;;;15.81;74.36;99270.92;2200605;80;20996;-64
2021/08/10 04:11:25;;;;;;;17.20;5.30;;;;;;;15.93;73.87;99264.72;2197849;80;21523;-64
2021/08/10 04:14:27;;;;;;;28.60;9.30;;;;;;;16.00;73.74;99269.04;2241472;79;21740;-64
2021/08/10 04:17:30;;;;;;;21.77;5.63;;;;;;;16.06;73.58;99258.00;2240179;79;21114;-64
2021/08/10 04:20:31;;;;;;;19.17;5.28;;;;;;;16.08;73.35;99260.05;2211258;80;21125;-64
2021/08/10 04:23:33;;;;;;;19.40;5.37;;;;;;;16.03;73.76;99254.73;2201833;80;21519;-64
2021/08/10 04:26:36;;;;;;;19.43;5.37;;;;;;;16.11;73.81;99257.65;2211158;80;21012;-64
2021/08/10 04:29:38;;;;;;;19.02;5.45;;;;;;;16.15;73.85;99260.88;2192959;80;21047;-64
2021/08/10 04:32:40;;;;;;;18.82;5.22;;;;;;;16.18;74.05;99260.18;2197473;80;21104;-64
2021/08/10 04:35:41;;;;;;;19.77;5.43;;;;;;;16.24;73.93;99254.89;2245526;79;20984;-64
2021/08/10 04:38:42;;;;;;;19.07;4.95;;;;;;;16.27;73.84;99257.30;2202581;80;20969;-65
2021/08/10 04:41:44;;;;;;;19.53;5.57;;;;;;;16.28;73.96;99261.14;2238161;79;20985;-64
2021/08/10 04:44:45;;;;;;;21.70;6.42;;;;;;;16.47;74.37;99254.91;2240371;78;21009;-64
2021/08/10 04:47:47;;;;;;;20.23;5.60;;;;;;;16.60;73.99;99256.44;2237561;79;21542;-65
2021/08/10 04:50:48;;;;;;;18.73;4.90;;;;;;;16.67;73.79;99261.27;2239666;78;21020;-64
2021/08/10 04:53:50;;;;;;;18.73;4.73;;;;;;;16.75;73.71;99266.78;2247167;78;21452;-65
2021/08/10 04:56:51;;;;;;;18.15;4.65;;;;;;;16.75;73.47;99273.41;2243299;78;20987;-65
2021/08/10 04:59:53;;;;;;;18.62;5.25;;;;;;;16.83;73.41;99260.89;2243131;77;21526;-65
2021/08/10 05:02:55;;;;;;;17.65;5.37;;;;;;;16.83;73.41;99260.89;2242311;78;21491;-63
2021/08/10 05:05:56;;;;;;;19.85;5.47;;;;;;;16.97;73.49;99269.43;2242125;78;20995;-64
2021/08/10 05:08:57;;;;;;;28.02;8.93;;;;;;;17.22;73.91;99261.30;2241068;78;20957;-64
2021/08/10 05:11:59;;;;;;;26.52;8.00;;;;;;;17.57;74.01;99263.70;2189393;80;21001;-64
2021/08/10 05:15:00;;;;;;;37.85;14.03;;;;;;;18.01;73.58;99263.61;2204159;80;21004;-64
2021/08/10 05:18:02;;;;;;;24.32;7.40;;;;;;;18.42;73.25;99259.22;2243366;79;21154;-64
2021/08/10 05:21:03;;;;;;;22.50;7.20;;;;;;;18.77;72.54;99247.80;2205231;80;21099;-65
2021/08/10 05:24:05;;;;;;;20.72;6.33;;;;;;;19.10;72.16;99246.63;2195153;80;21068;-63
2021/08/10 05:27:06;;;;;;;19.95;5.72;;;;;;;19.51;71.99;99247.83;2241897;78;21069;-64
2021/08/10 05:30:08;;;;;;;19.15;5.42;;;;;;;19.86;71.12;99243.78;2242712;78;21059;-64
2021/08/10 05:33:09;;;;;;;20.08;6.10;;;;;;;20.08;69.85;99255.91;2242306;78;21505;-63
2021/08/10 05:36:11;;;;;;;19.10;6.30;;;;;;;20.25;69.37;99256.48;2243264;78;21046;-64
2021/08/10 05:39:12;;;;;;;20.48;5.33;;;;;;;20.45;69.77;99262.25;2211840;80;20946;-65
2021/08/10 05:42:13;;;;;;;20.02;5.33;;;;;;;20.80;69.36;99266.04;2240923;77;21008;-63
2021/08/10 05:45:15;;;;;;;22.05;5.12;;;;;;;21.14;67.79;99264.09;2234756;79;21137;-63
2021/08/10 05:48:17;;;;;;;18.60;5.00;;;;;;;21.39;67.64;99266.02;2232497;78;21535;-63
2021/08/10 05:51:19;;;;;;;19.95;5.03;;;;;;;21.72;66.89;99266.81;2263287;77;21016;-63
2021/08/10 05:54:21;;;;;;;15.05;4.72;;;;;;;21.86;66.70;99268.09;2257816;78;20992;-63
2021/08/10 05:57:22;;;;;;;17.70;5.10;;;;;;;22.07;66.46;99261.07;2255658;78;21062;-62
2021/08/10 06:00:24;;;;;;;16.17;4.80;;;;;;;22.31;65.66;99259.88;2261972;78;20995;-62
2021/08/10 06:03:26;;;;;;;18.95;5.30;;;;;;;22.64;65.69;99259.20;2272341;77;20996;-63
2021/08/10 06:06:27;;;;;;;23.98;5.85;;;;;;;22.95;64.20;99262.67;2280135;77;21574;-63
2021/08/10 06:09:29;;;;;;;20.43;5.00;;;;;;;23.03;63.81;99255.16;2279167;77;20961;-63
2021/08/10 06:12:30;;;;;;;15.95;4.90;;;;;;;23.16;63.67;99250.23;2278385;78;21503;-63
2021/08/10 06:15:32;;;;;;;16.87;4.60;;;;;;;23.53;64.05;99256.94;2279199;77;21028;-63
2021/08/10 06:18:33;;;;;;;15.72;4.17;;;;;;;23.87;63.08;99255.96;2281875;77;20980;-63
2021/08/10 06:21:35;;;;;;;16.93;4.17;;;;;;;24.25;62.60;99252.70;2282883;77;21012;-63
2021/08/10 06:24:36;;;;;;;17.27;4.40;;;;;;;24.54;61.99;99248.11;2276167;77;20984;-62
2021/08/10 06:27:37;;;;;;;17.37;4.30;;;;;;;24.75;61.38;99250.72;2280780;77;21008;-63
